Time;durP1;ratioP1;P1;durP2;ratioP2;P2;SDS_P1;SDS_P2;PMS_P1;PMS_P2;Temp;Humidity;BMP_temperature;BMP_pressure;BME280_temperature;BME280_humidity;BME280_pressure;Samples;Min_cycle;Max_cycle;Signal;HPM_P1;HPM_P2
2023/11/12 00:05:17;;;;;;;0.10;0.00;;;0.40;96.10;;;;;;25596518;23;20009;-59
2023/11/12 00:15:19;;;;;;;0.13;0.00;;;0.40;94.60;;;;;;25595153;23;20005;-59
2023/11/12 00:25:21;;;;;;;0.00;0.00;;;0.30;96.00;;;;;;25595909;23;20351;-59
2023/11/12 00:35:23;;;;;;;0.00;0.00;;;0.50;95.50;;;;;;25595144;23;20009;-59
2023/11/12 00:45:24;;;;;;;0.10;0.00;;;0.80;95.50;;;;;;25594791;23;20080;-59
2023/11/12 00:55:26;;;;;;;0.15;0.05;;;1.00;94.30;;;;;;25594516;23;20008;-59
2023/11/12 01:05:28;;;;;;;0.10;0.00;;;1.10;94.60;;;;;;25594298;23;20012;-59
2023/11/12 01:15:30;;;;;;;0.10;0.00;;;0.90;95.00;;;;;;25594017;23;20001;-59
2023/11/12 01:25:35;;;;;;;0.00;0.00;;;0.90;95.30;;;;;;25593750;23;20060;-59
2023/11/12 01:35:37;;;;;;;1.90;0.00;;;0.80;94.50;;;;;;25593355;23;20482;-59
2023/11/12 01:45:38;;;;;;;0.00;0.00;;;0.80;94.90;;;;;;25597722;23;20028;-59
2023/11/12 01:55:41;;;;;;;0.00;0.00;;;0.80;94.30;;;;;;25601613;23;20001;-50
2023/11/12 02:05:42;;;;;;;0.00;0.00;;;0.70;95.20;;;;;;25602147;23;20005;-50
2023/11/12 02:15:47;;;;;;;0.10;0.00;;;0.40;96.00;;;;;;25489811;23;20013;-47
2023/11/12 02:25:49;;;;;;;0.20;0.00;;;0.50;94.40;;;;;;25642694;23;20008;-51
2023/11/12 02:35:51;;;;;;;0.10;0.00;;;0.60;95.00;;;;;;25599986;23;20074;-52
2023/11/12 02:45:52;;;;;;;0.10;0.00;;;0.30;96.10;;;;;;25599142;23;20012;-52
2023/11/12 02:55:58;;;;;;;0.40;0.00;;;0.40;96.00;;;;;;25599402;23;20005;-52
2023/11/12 03:06:02;;;;;;;0.17;0.10;;;0.40;97.20;;;;;;25598029;23;20012;-47
2023/11/12 03:16:04;;;;;;;0.00;0.00;;;0.50;98.20;;;;;;25598796;23;20005;-47
2023/11/12 03:26:06;;;;;;;0.55;0.00;;;1.10;95.40;;;;;;25440008;23;20009;-49
2023/11/12 03:36:15;;;;;;;0.30;0.08;;;1.30;96.40;;;;;;25464375;23;20389;-50
2023/11/12 03:46:16;;;;;;;0.10;0.00;;;1.20;97.60;;;;;;25468565;23;20381;-49
2023/11/12 03:56:18;;;;;;;0.10;0.10;;;1.50;97.10;;;;;;25570979;23;20020;-45
2023/11/12 04:06:20;;;;;;;0.10;0.00;;;1.50;97.10;;;;;;25597085;23;20012;-45
2023/11/12 04:16:22;;;;;;;0.00;0.00;;;1.50;96.70;;;;;;25596678;23;20009;-48
2023/11/12 04:26:24;;;;;;;0.08;0.00;;;1.60;96.90;;;;;;25596606;23;20055;-48
2023/11/12 04:36:27;;;;;;;0.20;0.00;;;1.80;97.30;;;;;;25595703;23;20012;-48
2023/11/12 04:46:30;;;;;;;1.35;0.10;;;2.10;95.50;;;;;;25595530;23;20016;-50
2023/11/12 04:56:31;;;;;;;0.10;0.00;;;1.80;97.60;;;;;;25595458;23;20012;-47
2023/11/12 05:06:33;;;;;;;0.28;0.05;;;1.60;96.70;;;;;;25595180;23;20005;-50
2023/11/12 05:16:35;;;;;;;0.80;0.32;;;1.50;96.90;;;;;;25593542;23;20503;-47
2023/11/12 05:26:36;;;;;;;0.10;0.00;;;1.50;97.00;;;;;;25594712;23;20005;-47
2023/11/12 05:36:39;;;;;;;0.05;0.00;;;1.50;97.30;;;;;;25593437;23;20032;-48
2023/11/12 05:46:41;;;;;;;0.00;0.00;;;1.50;97.10;;;;;;25594210;23;20005;-49
2023/11/12 05:56:43;;;;;;;0.03;0.00;;;1.60;97.90;;;;;;25594040;23;20001;-50
2023/11/12 06:06:45;;;;;;;0.00;0.00;;;1.60;97.00;;;;;;25593909;23;20013;-47
2023/11/12 06:16:55;;;;;;;0.00;0.00;;;1.70;96.30;;;;;;25592676;23;20033;-50
2023/11/12 06:26:57;;;;;;;;;;;1.90;94.70;;;;;;25593722;23;20452;-47
2023/11/12 06:36:59;;;;;;;0.00;0.00;;;2.40;95.70;;;;;;25600755;23;19923;-50
2023/11/12 06:47:00;;;;;;;0.00;0.00;;;2.50;94.90;;;;;;25600863;23;20001;-48
2023/11/12 06:57:02;;;;;;;0.28;0.00;;;2.50;98.10;;;;;;25600238;23;20059;-49
2023/11/12 07:07:05;;;;;;;0.00;0.00;;;2.40;97.60;;;;;;25599859;23;20005;-50
2023/11/12 07:17:07;;;;;;;0.13;0.00;;;2.40;96.10;;;;;;25599102;23;20059;-50
2023/11/12 07:27:09;;;;;;;0.30;0.00;;;2.60;95.90;;;;;;25599258;23;20009;-49
2023/11/12 07:37:10;;;;;;;0.20;0.00;;;3.10;97.00;;;;;;25599436;23;20013;-52
2023/11/12 07:47:12;;;;;;;0.20;0.00;;;3.80;95.80;;;;;;25598023;23;20059;-51
2023/11/12 07:57:14;;;;;;;1.98;0.10;;;4.10;95.80;;;;;;25597921;23;20013;-51
2023/11/12 08:07:16;;;;;;;0.32;0.10;;;3.90;96.40;;;;;;25597692;23;20001;-50
2023/11/12 08:17:17;;;;;;;0.10;0.08;;;3.90;96.30;;;;;;25594354;23;20064;-50
2023/11/12 08:27:19;;;;;;;0.43;0.10;;;4.10;96.10;;;;;;25596834;23;20325;-49
2023/11/12 08:37:21;;;;;;;0.47;0.20;;;4.30;98.50;;;;;;25596067;23;20013;-49
2023/11/12 08:47:23;;;;;;;1.00;0.20;;;4.50;97.20;;;;;;25594706;23;20012;-50
2023/11/12 08:57:24;;;;;;;0.40;0.20;;;5.30;93.80;;;;;;25595092;23;20001;-54
2023/11/12 09:07:29;;;;;;;0.88;0.30;;;5.90;93.70;;;;;;25594451;23;20055;-50
2023/11/12 09:17:31;;;;;;;0.47;0.20;;;5.60;92.40;;;;;;25594098;23;20083;-53
2023/11/12 09:27:32;;;;;;;0.70;0.30;;;6.30;90.80;;;;;;25596143;23;20005;-51
2023/11/12 09:37:35;;;;;;;0.43;0.22;;;7.60;90.40;;;;;;25593547;23;20056;-47
2023/11/12 09:47:55;;;;;;;0.50;0.30;;;8.70;90.30;;;;;;25594078;23;20008;-50
2023/11/12 09:57:57;;;;;;;0.40;0.23;;;8.60;91.10;;;;;;25635472;23;20749;-48
2023/11/12 10:07:59;;;;;;;0.65;0.45;;;7.90;93.00;;;;;;25598432;23;20001;-49
2023/11/12 10:18:02;;;;;;;0.90;0.40;;;7.20;94.60;;;;;;25599729;23;20020;-46
2023/11/12 10:28:04;;;;;;;1.08;0.50;;;6.60;94.10;;;;;;25601712;23;20005;-48
2023/11/12 10:38:06;;;;;;;0.93;0.50;;;6.50;94.00;;;;;;25600897;23;20016;-49
2023/11/12 10:48:10;;;;;;;1.33;0.68;;;6.50;93.70;;;;;;25600681;23;20009;-52
2023/11/12 10:58:13;;;;;;;2.22;0.80;;;6.80;95.60;;;;;;25600231;23;20009;-47
2023/11/12 11:08:15;;;;;;;2.28;0.90;;;7.00;95.90;;;;;;25598393;23;20001;-51
2023/11/12 11:18:34;;;;;;;1.70;1.20;;;7.10;95.30;;;;;;25598841;23;20310;-51
2023/11/12 11:28:36;;;;;;;2.55;1.88;;;7.10;96.40;;;;;;25640412;23;20445;-50
2023/11/12 11:38:37;;;;;;;2.92;1.80;;;7.20;95.00;;;;;;25598806;23;20009;-51
2023/11/12 11:48:42;;;;;;;3.20;1.73;;;7.20;95.80;;;;;;25598469;23;20005;-47
2023/11/12 11:58:51;;;;;;;3.08;1.63;;;7.00;97.30;;;;;;25597704;23;20052;-51
2023/11/12 12:08:57;;;;;;;8.47;3.77;;;7.50;95.90;;;;;;25638201;23;20005;-50
2023/11/12 12:19:01;;;;;;;7.15;4.30;;;7.90;98.20;;;;;;25596692;23;20155;-57
2023/11/12 12:29:20;;;;;;;5.07;3.28;;;8.00;98.90;;;;;;25596568;23;19997;-50
2023/11/12 12:39:26;;;;;;;5.95;3.20;;;8.70;97.10;;;;;;25637421;23;20341;-51
2023/11/12 12:49:33;;;;;;;7.30;4.40;;;8.90;97.30;;;;;;25568473;23;20016;-53
2023/11/12 12:59:37;;;;;;;10.10;4.13;;;9.00;98.00;;;;;;25636853;23;20005;-57
2023/11/12 13:09:40;;;;;;;7.63;5.25;;;8.40;97.80;;;;;;25594861;23;20007;-59
2023/11/12 13:19:42;;;;;;;9.07;5.80;;;7.80;99.90;;;;;;25594639;23;20021;-53
2023/11/12 13:29:47;;;;;;;6.70;4.70;;;7.40;99.90;;;;;;25594697;23;20009;-53
2023/11/12 13:39:52;;;;;;;8.90;4.32;;;6.70;99.90;;;;;;25593932;23;20009;-58
2023/11/12 13:49:54;;;;;;;7.20;4.72;;;6.50;99.90;;;;;;25593134;23;20380;-51
2023/11/12 13:59:59;;;;;;;8.00;5.20;;;6.50;99.90;;;;;;25593993;23;20005;-49
2023/11/12 14:10:03;;;;;;;6.70;4.25;;;6.10;99.90;;;;;;25593324;23;20005;-49
2023/11/12 14:20:06;;;;;;;5.78;3.83;;;5.70;99.90;;;;;;25592511;23;20064;-57
2023/11/12 14:30:13;;;;;;;5.57;3.70;;;5.10;99.90;;;;;;25593305;23;20384;-51
2023/11/12 14:40:16;;;;;;;6.65;4.40;;;4.40;99.90;;;;;;25634662;23;20005;-48
2023/11/12 14:50:18;;;;;;;5.57;4.07;;;3.90;99.90;;;;;;25594476;23;20507;-48
2023/11/12 15:00:27;;;;;;;6.80;4.13;;;3.70;99.90;;;;;;25600042;23;20036;-57
2023/11/12 15:10:30;;;;;;;8.43;4.72;;;3.50;99.90;;;;;;25573100;23;20064;-49
2023/11/12 15:20:32;;;;;;;10.27;4.75;;;3.20;99.90;;;;;;25599371;23;20021;-49
2023/11/12 15:30:33;;;;;;;6.72;3.47;;;2.80;99.90;;;;;;25598630;23;20012;-50
2023/11/12 15:40:35;;;;;;;7.93;4.18;;;2.40;99.90;;;;;;25598719;23;20005;-58
2023/11/12 15:50:43;;;;;;;8.13;4.70;;;2.10;99.90;;;;;;25597934;23;20433;-58
2023/11/12 16:00:45;;;;;;;9.52;5.00;;;1.90;99.90;;;;;;25637339;23;20507;-58
2023/11/12 16:10:46;;;;;;;4.93;3.28;;;1.70;99.90;;;;;;25597480;23;20393;-58
2023/11/12 16:20:48;;;;;;;5.55;2.65;;;2.20;99.90;;;;;;25596956;23;20021;-59
2023/11/12 16:30:53;;;;;;;5.32;2.70;;;2.50;99.90;;;;;;25596592;23;20005;-57
2023/11/12 16:40:56;;;;;;;3.90;2.47;;;2.10;99.90;;;;;;25596181;23;20008;-58
2023/11/12 16:50:58;;;;;;;3.20;1.48;;;3.00;99.90;;;;;;25595496;23;20087;-58
2023/11/12 17:01:01;;;;;;;0.35;0.10;;;2.80;99.90;;;;;;25594422;23;20005;-59
2023/11/12 17:11:05;;;;;;;1.00;0.20;;;4.00;99.90;;;;;;25594281;23;20297;-49
2023/11/12 17:21:07;;;;;;;0.52;0.10;;;4.50;99.90;;;;;;25594596;23;20040;-49
2023/11/12 17:31:11;;;;;;;1.27;0.10;;;5.10;99.90;;;;;;25594616;23;20032;-54
2023/11/12 17:41:13;;;;;;;5.00;1.60;;;4.60;99.90;;;;;;25594121;23;20005;-56
2023/11/12 17:51:15;;;;;;;2.28;1.35;;;3.10;99.90;;;;;;25594265;23;20005;-59
2023/11/12 18:01:18;;;;;;;2.22;1.23;;;2.10;99.90;;;;;;25593295;23;20009;-57
2023/11/12 18:11:20;;;;;;;3.58;0.80;;;1.40;99.90;;;;;;25593795;23;20005;-47
2023/11/12 18:21:22;;;;;;;2.00;1.00;;;1.00;99.90;;;;;;25591871;23;20013;-49
2023/11/12 18:31:24;;;;;;;3.63;1.60;;;1.20;99.90;;;;;;25600551;23;20083;-48
2023/11/12 18:41:26;;;;;;;2.08;1.20;;;1.00;99.90;;;;;;25601063;23;20012;-52
2023/11/12 18:51:29;;;;;;;1.10;0.40;;;1.20;99.90;;;;;;25600527;23;20055;-58
2023/11/12 19:01:34;;;;;;;2.05;0.88;;;1.30;99.90;;;;;;25598915;23;20044;-57
2023/11/12 19:11:40;;;;;;;4.05;1.83;;;1.00;99.90;;;;;;25599999;23;20056;-58
2023/11/12 19:21:42;;;;;;;5.13;1.42;;;0.80;99.90;;;;;;25599372;23;20499;-59
2023/11/12 19:31:44;;;;;;;3.20;1.50;;;0.60;99.90;;;;;;25599331;23;20380;-59
2023/11/12 19:41:46;;;;;;;2.17;1.40;;;0.30;99.90;;;;;;25598336;23;20001;-58
2023/11/12 19:51:48;;;;;;;2.42;1.30;;;0.10;99.90;;;;;;25598414;23;20001;-59
2023/11/12 20:01:50;;;;;;;2.95;1.30;;;0.10;99.90;;;;;;25598096;23;20001;-59
2023/11/12 20:11:55;;;;;;;3.78;1.50;;;0.10;99.90;;;;;;25597012;23;20039;-59
2023/11/12 20:22:00;;;;;;;3.42;1.48;;;0.10;99.90;;;;;;25595359;23;20519;-59
2023/11/12 20:32:03;;;;;;;2.75;1.50;;;0.20;99.90;;;;;;25596583;23;20009;-59
2023/11/12 20:42:09;;;;;;;2.10;1.10;;;0.00;99.90;;;;;;25596079;23;20051;-58
2023/11/12 20:52:10;;;;;;;2.28;1.05;;;0.00;99.90;;;;;;25637137;23;20325;-59
2023/11/12 21:02:15;;;;;;;4.07;0.85;;;-0.10;99.90;;;;;;25596102;23;20048;-59
2023/11/12 21:12:18;;;;;;;2.50;1.20;;;-0.20;99.90;;;;;;25595197;23;20005;-59
2023/11/12 21:22:20;;;;;;;2.05;1.17;;;0.00;99.90;;;;;;25595021;23;20013;-57
2023/11/12 21:32:22;;;;;;;2.05;1.13;;;-0.20;99.90;;;;;;25594717;23;20016;-59
2023/11/12 21:42:24;;;;;;;1.85;0.85;;;0.00;99.90;;;;;;25594849;23;20009;-59
2023/11/12 21:52:26;;;;;;;1.63;0.90;;;0.40;99.90;;;;;;25594441;23;20381;-59
2023/11/12 22:02:28;;;;;;;2.00;1.20;;;0.80;99.90;;;;;;25598479;23;20005;-59
2023/11/12 22:12:30;;;;;;;2.05;0.80;;;1.30;99.90;;;;;;25602285;23;20325;-59
2023/11/12 22:22:32;;;;;;;2.00;0.93;;;1.40;99.90;;;;;;25601632;23;20021;-58
2023/11/12 22:32:36;;;;;;;1.55;0.68;;;1.60;99.90;;;;;;25601362;23;20013;-59
2023/11/12 22:42:38;;;;;;;1.20;0.70;;;1.40;99.90;;;;;;25601362;23;20001;-59
2023/11/12 22:52:40;;;;;;;2.60;0.57;;;1.50;99.90;;;;;;25598909;23;20005;-59
2023/11/12 23:02:43;;;;;;;1.13;0.55;;;1.70;99.90;;;;;;25599985;23;20043;-59
2023/11/12 23:12:45;;;;;;;3.10;0.47;;;1.60;99.90;;;;;;25598986;23;20013;-58
2023/11/12 23:22:47;;;;;;;1.23;0.32;;;1.40;99.90;;;;;;25599611;23;20009;-59
2023/11/12 23:32:48;;;;;;;0.80;0.40;;;1.00;99.90;;;;;;25600397;23;20476;-59
2023/11/12 23:42:50;;;;;;;2.40;0.45;;;0.80;99.90;;;;;;25598897;23;20068;-46
2023/11/12 23:52:52;;;;;;;1.30;0.40;;;0.70;99.90;;;;;;25598381;23;20005;-59
